createdAt,value
2019-03-21T00:00:40.226Z,19.90
2019-03-21T00:04:46.859Z,16.77
2019-03-21T00:08:51.849Z,18.30
2019-03-21T00:12:57.221Z,20.53
2019-03-21T00:17:05.081Z,20.63
2019-03-21T00:21:11.289Z,14.73
2019-03-21T00:25:19.601Z,18.97
2019-03-21T00:29:24.598Z,17.77
2019-03-21T00:33:29.657Z,19.87
2019-03-21T00:37:34.641Z,16.13
2019-03-21T00:41:39.828Z,20.93
2019-03-21T00:45:44.807Z,18.20
2019-03-21T00:49:49.865Z,20.33
2019-03-21T00:53:54.858Z,19.13
2019-03-21T00:57:59.994Z,18.27
2019-03-21T01:02:04.990Z,14.73
2019-03-21T01:06:09.966Z,20.43
2019-03-21T01:10:21.124Z,18.43
2019-03-21T01:14:29.971Z,19.73
2019-03-21T01:18:33.993Z,18.47
2019-03-21T01:22:38.989Z,15.57
2019-03-21T01:26:43.981Z,21.00
2019-03-21T01:30:48.959Z,17.40
2019-03-21T01:34:53.975Z,19.90
2019-03-21T01:38:58.972Z,18.70
2019-03-21T01:43:04.065Z,19.77
2019-03-21T01:47:09.054Z,18.43
2019-03-21T01:51:14.024Z,18.37
2019-03-21T01:55:19.071Z,18.33
2019-03-21T01:59:24.078Z,17.57
2019-03-21T02:03:29.124Z,19.97
2019-03-21T02:07:34.122Z,21.87
2019-03-21T02:11:39.149Z,23.83
2019-03-21T02:15:44.159Z,29.43
2019-03-21T02:19:49.166Z,22.93
2019-03-21T02:23:54.184Z,17.37
2019-03-21T02:27:59.414Z,19.00
2019-03-21T02:32:04.462Z,15.80
2019-03-21T02:36:11.326Z,18.87
2019-03-21T02:40:22.427Z,15.67
2019-03-21T02:44:27.445Z,22.47
2019-03-21T02:48:32.444Z,18.50
2019-03-21T02:52:37.511Z,26.43
2019-03-21T02:56:42.578Z,20.87
2019-03-21T03:00:47.767Z,19.27
2019-03-21T03:04:52.840Z,26.63
2019-03-21T03:08:57.791Z,15.87
2019-03-21T03:13:02.788Z,20.17
2019-03-21T03:17:08.723Z,17.83
2019-03-21T03:21:13.725Z,16.53
2019-03-21T03:25:20.251Z,20.23
2019-03-21T03:29:25.245Z,21.73
2019-03-21T03:33:30.318Z,19.30
2019-03-21T03:37:35.362Z,20.93
2019-03-21T03:41:40.378Z,21.40
2019-03-21T03:45:45.661Z,19.40
2019-03-21T03:49:50.930Z,21.40
2019-03-21T03:53:55.911Z,19.60
2019-03-21T03:58:09.513Z,19.27
2019-03-21T04:02:14.480Z,19.97
2019-03-21T04:06:19.461Z,18.00
2019-03-21T04:10:30.278Z,25.70
2019-03-21T04:14:35.410Z,24.70
2019-03-21T04:18:40.410Z,17.77
2019-03-21T04:22:45.720Z,19.63
2019-03-21T04:26:50.715Z,20.40
2019-03-21T04:30:55.718Z,23.07
2019-03-21T04:35:00.709Z,20.30
2019-03-21T04:39:08.144Z,18.67
2019-03-21T04:43:13.168Z,18.60
2019-03-21T04:47:18.147Z,19.07
2019-03-21T04:51:23.414Z,25.33
2019-03-21T04:55:28.488Z,18.83
2019-03-21T04:59:33.496Z,17.80
2019-03-21T05:03:38.484Z,19.20
2019-03-21T05:07:43.446Z,21.13
2019-03-21T05:11:48.548Z,17.47
2019-03-21T05:15:54.614Z,21.50
2019-03-21T05:19:59.714Z,26.43
2019-03-21T05:24:04.782Z,21.33
2019-03-21T05:28:09.815Z,20.70
2019-03-21T05:32:14.795Z,19.23
2019-03-21T05:36:19.786Z,24.77
2019-03-21T05:40:24.855Z,20.20
2019-03-21T05:44:32.966Z,20.90
2019-03-21T05:48:37.931Z,22.13
2019-03-21T05:52:43.604Z,17.77
2019-03-21T05:56:48.574Z,20.17
2019-03-21T06:01:02.906Z,19.60
2019-03-21T06:05:08.175Z,19.67
2019-03-21T06:09:16.661Z,21.93
2019-03-21T06:13:23.764Z,20.67
2019-03-21T06:17:30.045Z,23.77
2019-03-21T06:21:50.256Z,20.47
2019-03-21T06:26:02.274Z,20.70
2019-03-21T06:30:08.891Z,18.53
2019-03-21T06:34:14.291Z,20.87
2019-03-21T06:38:19.581Z,18.67
2019-03-21T06:42:24.867Z,18.63
2019-03-21T06:46:30.154Z,16.67
2019-03-21T06:50:35.498Z,17.07
2019-03-21T06:54:40.774Z,20.47
2019-03-21T06:58:46.065Z,24.30
2019-03-21T07:02:51.569Z,20.47
2019-03-21T07:07:07.271Z,20.70
2019-03-21T07:11:03.786Z,20.13
2019-03-21T07:15:10.796Z,22.53
2019-03-21T07:19:16.053Z,19.13
2019-03-21T07:23:21.358Z,17.63
2019-03-21T07:27:26.663Z,21.53
2019-03-21T07:31:32.021Z,21.30
2019-03-21T07:35:38.847Z,16.87
2019-03-21T07:39:44.191Z,22.90
2019-03-21T07:43:49.454Z,17.40
2019-03-21T07:47:55.902Z,20.93
2019-03-21T07:52:01.202Z,23.00
2019-03-21T07:56:06.487Z,18.93
2019-03-21T08:00:14.851Z,26.33
2019-03-21T08:04:20.170Z,16.00
2019-03-21T08:08:25.462Z,19.77
2019-03-21T08:12:30.800Z,26.00
2019-03-21T08:16:36.101Z,19.87
2019-03-21T08:20:41.553Z,22.37
2019-03-21T08:24:46.805Z,17.40
2019-03-21T08:28:52.209Z,23.23
2019-03-21T08:32:57.570Z,24.17
2019-03-21T08:37:02.870Z,23.43
2019-03-21T08:41:08.226Z,19.90
2019-03-21T08:45:13.597Z,24.07
2019-03-21T08:49:18.866Z,24.30
2019-03-21T08:53:24.151Z,20.10
2019-03-21T08:57:29.458Z,20.60
2019-03-21T09:01:35.025Z,22.87
2019-03-21T09:05:40.408Z,17.43
2019-03-21T09:09:45.681Z,19.00
2019-03-21T09:13:51.046Z,19.90
2019-03-21T09:17:56.338Z,21.87
2019-03-21T09:22:01.609Z,16.97
2019-03-21T09:26:06.925Z,17.87
2019-03-21T09:30:14.417Z,20.50
2019-03-21T09:34:19.777Z,19.50
2019-03-21T09:38:25.055Z,16.83
2019-03-21T09:42:30.361Z,15.00
2019-03-21T09:46:36.709Z,16.23
2019-03-21T09:50:42.030Z,17.67
2019-03-21T09:54:47.318Z,18.37
2019-03-21T09:58:52.602Z,19.43
2019-03-21T10:02:57.874Z,15.53
2019-03-21T10:07:03.232Z,17.47
2019-03-21T10:11:08.419Z,18.03
2019-03-21T10:15:13.814Z,17.23
2019-03-21T10:19:19.113Z,17.97
2019-03-21T10:23:24.390Z,18.37
2019-03-21T10:27:29.666Z,19.77
2019-03-21T10:31:34.942Z,20.40
2019-03-21T10:35:40.380Z,15.97
2019-03-21T10:39:45.655Z,15.47
2019-03-21T10:43:50.952Z,17.93
2019-03-21T10:47:56.249Z,17.70
2019-03-21T10:52:01.510Z,18.03
2019-03-21T10:56:06.800Z,18.17
2019-03-21T11:00:12.551Z,46.90
2019-03-21T11:04:18.092Z,17.20
2019-03-21T11:08:23.426Z,14.23
2019-03-21T11:12:28.682Z,17.57
2019-03-21T11:16:34.006Z,17.50
2019-03-21T11:20:39.959Z,16.37
2019-03-21T11:24:45.228Z,15.87
2019-03-21T11:28:50.507Z,16.97
2019-03-21T11:32:55.758Z,16.83
2019-03-21T11:37:01.087Z,18.13
2019-03-21T11:41:06.396Z,14.03
2019-03-21T11:45:12.937Z,12.57
2019-03-21T11:49:18.250Z,16.30
2019-03-21T11:53:23.502Z,14.43
2019-03-21T11:57:28.799Z,14.63
2019-03-21T12:01:34.074Z,15.03
2019-03-21T12:05:39.358Z,18.33
2019-03-21T12:09:44.701Z,15.13
2019-03-21T12:13:49.962Z,12.47
2019-03-21T12:17:55.254Z,15.57
2019-03-21T12:22:00.578Z,19.57
2019-03-21T12:26:05.997Z,16.10
2019-03-21T12:30:14.186Z,17.03
2019-03-21T12:34:19.446Z,17.93
2019-03-21T12:38:24.765Z,18.43
2019-03-21T12:42:30.142Z,16.00
2019-03-21T12:46:35.422Z,17.33
2019-03-21T12:50:40.753Z,19.30
2019-03-21T12:54:46.006Z,17.00
2019-03-21T12:58:51.303Z,17.07
2019-03-21T13:02:56.571Z,22.60
2019-03-21T13:07:01.858Z,17.30
2019-03-21T13:11:07.202Z,20.67
2019-03-21T13:15:12.650Z,18.63
2019-03-21T13:19:17.930Z,19.60
2019-03-21T13:23:23.212Z,19.47
2019-03-21T13:27:28.498Z,15.60
2019-03-21T13:31:33.781Z,22.37
2019-03-21T13:35:39.037Z,21.73
2019-03-21T13:39:44.309Z,18.67
2019-03-21T13:43:49.580Z,19.37
2019-03-21T13:47:54.861Z,19.37
2019-03-21T13:52:00.137Z,21.67
2019-03-21T13:56:05.405Z,19.47
2019-03-21T14:00:16.653Z,19.90
2019-03-21T14:04:21.928Z,19.00
2019-03-21T14:08:27.223Z,16.57
2019-03-21T14:12:32.506Z,18.90
2019-03-21T14:16:37.749Z,20.87
2019-03-21T14:20:43.059Z,18.70
2019-03-21T14:24:48.337Z,19.13
2019-03-21T14:28:53.610Z,20.63
2019-03-21T14:32:59.083Z,16.27
2019-03-21T14:37:04.445Z,17.90
2019-03-21T14:41:09.802Z,18.53
2019-03-21T14:45:16.549Z,22.57
2019-03-21T14:49:21.794Z,21.53
2019-03-21T14:53:29.121Z,23.37
2019-03-21T14:57:36.325Z,22.93
2019-03-21T15:01:41.578Z,20.37
2019-03-21T15:05:46.857Z,26.03
2019-03-21T15:09:52.147Z,20.60
2019-03-21T15:13:57.425Z,16.50
2019-03-21T15:18:02.711Z,19.27
2019-03-21T15:22:08.026Z,17.47
2019-03-21T15:26:13.323Z,19.67
2019-03-21T15:30:19.708Z,20.80
2019-03-21T15:34:26.234Z,21.00
2019-03-21T15:38:31.696Z,20.73
2019-03-21T15:42:37.168Z,17.80
2019-03-21T15:46:42.424Z,19.57
2019-03-21T15:50:47.747Z,20.30
2019-03-21T15:54:53.073Z,20.57
2019-03-21T15:58:58.359Z,16.53
2019-03-21T16:03:05.342Z,18.43
2019-03-21T16:07:10.621Z,21.00
2019-03-21T16:11:15.895Z,22.17
2019-03-21T16:15:21.188Z,16.17
2019-03-21T16:19:26.476Z,31.20
2019-03-21T16:23:31.793Z,21.13
2019-03-21T16:27:37.641Z,19.13
2019-03-21T16:31:42.934Z,19.57
2019-03-21T16:35:48.210Z,16.73
2019-03-21T16:39:53.546Z,17.90
2019-03-21T16:43:58.822Z,18.77
2019-03-21T16:48:04.537Z,17.97
2019-03-21T16:52:10.793Z,20.20
2019-03-21T16:56:16.169Z,23.07
2019-03-21T17:00:21.777Z,18.50
2019-03-21T17:04:27.062Z,19.87
2019-03-21T17:08:32.334Z,22.53
2019-03-21T17:12:40.438Z,19.30
2019-03-21T17:16:44.552Z,20.13
2019-03-21T17:20:49.928Z,18.73
2019-03-21T17:24:55.201Z,18.40
2019-03-21T17:29:01.746Z,18.30
2019-03-21T17:33:07.415Z,24.50
2019-03-21T17:37:12.882Z,24.07
2019-03-21T17:41:18.186Z,22.63
2019-03-21T17:45:23.534Z,24.47
2019-03-21T17:49:28.939Z,25.67
2019-03-21T17:53:34.432Z,28.57
2019-03-21T17:57:40.878Z,24.43
2019-03-21T18:01:46.339Z,25.50
2019-03-21T18:05:51.602Z,24.80
2019-03-21T18:09:57.996Z,26.27
2019-03-21T18:14:04.188Z,27.97
2019-03-21T18:18:09.557Z,25.47
2019-03-21T18:22:14.833Z,25.80
2019-03-21T18:26:20.233Z,27.53
2019-03-21T18:30:25.579Z,30.43
2019-03-21T18:34:30.861Z,25.07
2019-03-21T18:38:36.221Z,32.37
2019-03-21T18:42:42.846Z,26.63
2019-03-21T18:46:48.354Z,33.70
2019-03-21T18:50:56.546Z,31.43
2019-03-21T18:55:06.667Z,24.93
2019-03-21T18:59:08.739Z,32.40
2019-03-21T19:03:14.030Z,29.60
2019-03-21T19:07:19.345Z,32.53
2019-03-21T19:11:24.633Z,33.30
2019-03-21T19:15:29.911Z,31.57
2019-03-21T19:19:35.203Z,25.60
2019-03-21T19:23:40.514Z,26.20
2019-03-21T19:27:45.770Z,27.97
2019-03-21T19:31:51.032Z,32.83
2019-03-21T19:35:56.029Z,33.88
2019-03-21T19:40:01.030Z,30.82
2019-03-21T19:44:06.402Z,23.13
2019-03-21T19:48:11.686Z,28.70
2019-03-21T19:52:17.247Z,25.77
2019-03-21T19:56:22.209Z,27.90
2019-03-21T20:00:27.227Z,32.43
2019-03-21T20:04:32.582Z,26.83
2019-03-21T20:08:37.582Z,30.37
2019-03-21T20:12:42.605Z,31.95
2019-03-21T20:16:47.674Z,31.97
2019-03-21T20:20:52.826Z,29.95
2019-03-21T20:24:57.822Z,35.07
2019-03-21T20:29:02.827Z,34.40
2019-03-21T20:33:07.957Z,36.87
2019-03-21T20:37:12.943Z,35.30
2019-03-21T20:41:18.226Z,34.40
2019-03-21T20:45:23.221Z,37.97
2019-03-21T20:49:28.289Z,41.47
2019-03-21T20:53:33.286Z,37.13
2019-03-21T20:57:38.282Z,35.67
2019-03-21T21:01:43.368Z,39.07
2019-03-21T21:05:49.442Z,32.90
2019-03-21T21:09:54.467Z,35.03
2019-03-21T21:13:59.437Z,38.60
2019-03-21T21:18:04.581Z,37.73
2019-03-21T21:22:09.573Z,39.60
2019-03-21T21:26:14.630Z,39.00
2019-03-21T21:30:22.799Z,36.40
2019-03-21T21:34:27.789Z,44.53
2019-03-21T21:38:32.783Z,41.97
2019-03-21T21:42:37.851Z,40.80
2019-03-21T21:46:42.862Z,41.10
2019-03-21T21:50:47.861Z,37.77
2019-03-21T21:54:52.863Z,40.63
2019-03-21T21:58:57.841Z,42.53
2019-03-21T22:03:02.850Z,43.60
2019-03-21T22:07:07.930Z,40.97
2019-03-21T22:11:12.930Z,40.40
2019-03-21T22:15:18.416Z,38.13
2019-03-21T22:19:23.403Z,37.63
2019-03-21T22:23:29.458Z,36.20
2019-03-21T22:27:34.477Z,43.00
2019-03-21T22:31:39.477Z,41.53
2019-03-21T22:35:44.496Z,38.30
2019-03-21T22:39:49.486Z,41.70
2019-03-21T22:43:54.494Z,44.20
2019-03-21T22:47:59.508Z,38.53
2019-03-21T22:52:04.509Z,46.13
2019-03-21T22:56:09.509Z,48.33
2019-03-21T23:00:29.175Z,47.73
2019-03-21T23:04:35.845Z,51.93
2019-03-21T23:08:41.939Z,52.77
2019-03-21T23:12:46.930Z,57.07
2019-03-21T23:16:51.998Z,65.73
2019-03-21T23:20:57.045Z,58.80
2019-03-21T23:25:02.065Z,54.27
2019-03-21T23:29:07.117Z,57.93
2019-03-21T23:33:12.187Z,59.67
2019-03-21T23:37:17.266Z,57.77
2019-03-21T23:41:23.309Z,45.80
2019-03-21T23:45:28.380Z,52.87
2019-03-21T23:49:33.397Z,50.40
2019-03-21T23:53:38.427Z,48.87
2019-03-21T23:57:43.437Z,50.33
